KGNT/GNT METAR and TAF weather

Enter ICAO airport designator
Station Type Date Time Source
KGNT METAR 2020/09/21 08:15 UTC NOAA

KGNT 210815Z AUTO 14005KT 10SM CLR 12/00 A3028 RMK AO2 T01231004


Station Type Date Time Source
KGNT Decoded METAR 2020/09/21 08:15 UTC NOAA

GRANTS-MILAN MUNICIPAL AIRPORT , NM, United States (KGNT) 35-10N 107-54W 1987M
Sep 21, 2020 - 04:15 AM EDT / 2020.09.21 0815 UTC
Wind: from the SE (140 degrees) at 6 MPH (5 KT):0
Visibility: 10 mile(s):0
Sky conditions: clear
Temperature: 54.1 F (12.3 C)
Dew Point: 31.3 F (-0.4 C)
Relative Humidity: 41%
Pressure (altimeter): 30.28 in. Hg (1025 hPa)
ob: KGNT 210815Z AUTO 14005KT 10SM CLR 12/00 A3028 RMK AO2 T01231004
cycle: 8

Station Type Date Time Source
KGNT TAF UTC NOAA

Error!

Example: see airport list